Time;durP1;ratioP1;P1;durP2;ratioP2;P2;SDS_P1;SDS_P2;PMS_P1;PMS_P2;Temp;Humidity;BMP_temperature;BMP_pressure;BME280_temperature;BME280_humidity;BME280_pressure;Samples;Min_cycle;Max_cycle;Signal;HPM_P1;HPM_P2
2023/08/21 00:01:56;;;;;;;9.05;5.85;;;;;;;23.48;42.66;94246.63;5082051;28;20119;-75
2023/08/21 00:04:21;;;;;;;7.93;5.32;;;;;;;23.41;42.94;94245.84;5074122;28;20032;-75
2023/08/21 00:06:47;;;;;;;6.20;5.20;;;;;;;23.38;42.58;94236.50;5087394;27;20470;-77
2023/08/21 00:09:12;;;;;;;6.00;4.60;;;;;;;23.32;43.24;94231.84;5074736;28;20040;-74
2023/08/21 00:11:37;;;;;;;5.75;5.20;;;;;;;23.36;43.31;94238.06;5077377;28;20077;-75
2023/08/21 00:14:03;;;;;;;5.55;5.03;;;;;;;23.32;42.93;94243.47;5074823;28;20040;-76
2023/08/21 00:16:29;;;;;;;6.38;5.40;;;;;;;23.34;42.64;94240.38;5075402;28;20178;-76
2023/08/21 00:18:54;;;;;;;8.15;5.95;;;;;;;23.13;42.86;94220.16;5076620;28;20082;-75
2023/08/21 00:21:20;;;;;;;6.25;5.65;;;;;;;23.07;43.39;94216.25;5074004;28;20063;-75
2023/08/21 00:23:46;;;;;;;7.20;6.03;;;;;;;23.19;43.32;94222.50;5076613;28;20392;-76
2023/08/21 00:26:12;;;;;;;6.40;5.43;;;;;;;23.01;43.13;94223.22;5075256;28;20022;-75
2023/08/21 00:28:38;;;;;;;8.80;5.75;;;;;;;23.11;43.42;94227.91;5074270;28;20109;-76
2023/08/21 00:31:04;;;;;;;5.75;4.93;;;;;;;23.08;43.32;94233.31;5067337;28;20512;-75
2023/08/21 00:33:33;;;;;;;5.50;5.00;;;;;;;23.10;43.69;94231.00;5094204;27;20086;-75
2023/08/21 00:35:59;;;;;;;6.53;4.70;;;;;;;23.05;43.67;94229.44;5073184;28;20059;-75
2023/08/21 00:38:26;;;;;;;7.72;5.25;;;;;;;23.05;43.64;94236.78;5074458;28;20590;-76
2023/08/21 00:40:51;;;;;;;5.72;5.10;;;;;;;23.00;43.59;94240.66;5074867;28;20032;-75
2023/08/21 00:43:17;;;;;;;8.65;5.13;;;;;;;22.91;43.54;94234.81;5074715;28;20198;-75
2023/08/21 00:45:45;;;;;;;8.88;5.88;;;;;;;22.94;43.72;94246.81;5076185;28;20492;-76
2023/08/21 00:48:12;;;;;;;6.25;5.20;;;;;;;22.95;43.74;94245.66;5075846;28;20092;-75
2023/08/21 00:50:38;;;;;;;7.53;5.15;;;;;;;22.83;43.53;94232.41;5076566;28;20058;-75
2023/08/21 00:53:04;;;;;;;6.13;5.00;;;;;;;22.78;43.94;94241.66;5066459;28;20614;-77
2023/08/21 00:55:31;;;;;;;5.95;5.35;;;;;;;22.82;43.88;94244.41;5069341;28;20109;-75
2023/08/21 00:57:57;;;;;;;5.85;5.22;;;;;;;22.81;43.94;94246.34;5077077;28;20246;-74
2023/08/21 01:00:25;;;;;;;7.15;5.03;;;;;;;22.73;43.56;94242.06;5072601;28;20040;-75
2023/08/21 01:02:50;;;;;;;6.18;5.18;;;;;;;22.73;43.70;94239.34;5075803;28;20104;-74
2023/08/21 01:05:19;;;;;;;6.13;4.80;;;;;;;22.79;44.30;94253.28;5076041;28;20498;-76
2023/08/21 01:07:53;;;;;;;8.45;6.18;;;;;;;22.81;44.30;94251.78;5073895;28;20093;-75
2023/08/21 01:10:45;;;;;;;7.20;5.30;;;;;;;22.74;43.97;94246.31;5070258;28;20039;-76
2023/08/21 01:13:36;;;;;;;6.68;4.80;;;;;;;22.76;43.94;94252.13;5069402;28;20512;-74
2023/08/21 01:16:05;;;;;;;6.55;5.18;;;;;;;22.68;44.09;94242.41;5091579;27;20070;-75
2023/08/21 01:18:32;;;;;;;5.97;5.38;;;;;;;22.71;44.12;94247.06;5074941;28;20035;-77
2023/08/21 01:20:58;;;;;;;6.22;5.45;;;;;;;22.66;43.92;94244.72;5076550;28;20040;-76
2023/08/21 01:23:32;;;;;;;9.95;5.40;;;;;;;22.52;44.06;94221.03;5071677;28;20035;-75
2023/08/21 01:25:58;;;;;;;6.00;5.32;;;;;;;22.66;44.15;94244.72;5076430;28;20040;-77
2023/08/21 01:28:24;;;;;;;8.27;5.03;;;;;;;22.66;44.12;94252.84;5065502;28;20036;-75
2023/08/21 01:30:54;;;;;;;6.45;5.43;;;;;;;22.59;44.09;94234.59;5067003;28;20641;-75
2023/08/21 01:33:21;;;;;;;9.23;5.90;;;;;;;22.53;44.10;94235.38;5074752;28;20081;-74
2023/08/21 01:35:47;;;;;;;8.10;5.38;;;;;;;22.59;43.99;94240.03;5072952;28;20051;-75
2023/08/21 01:38:13;;;;;;;4.78;4.38;;;;;;;22.62;44.18;94242.00;5071726;28;20440;-75
2023/08/21 01:40:39;;;;;;;5.57;5.07;;;;;;;22.59;44.32;94250.09;5072738;28;20040;-76
2023/08/21 01:43:05;;;;;;;7.05;5.70;;;;;;;22.54;44.35;94251.22;5071249;28;20538;-76
2023/08/21 01:45:30;;;;;;;7.88;4.78;;;;;;;22.53;44.14;94252.41;5074150;28;20028;-75
2023/08/21 01:47:56;;;;;;;5.15;4.68;;;;;;;22.58;44.28;94254.75;5072112;28;20028;-75
2023/08/21 01:50:21;;;;;;;6.30;5.70;;;;;;;22.59;43.94;94255.50;5072999;28;20024;-75
2023/08/21 01:52:46;;;;;;;6.35;5.40;;;;;;;22.67;43.52;94251.69;5072155;28;20036;-76
2023/08/21 01:55:12;;;;;;;6.90;5.43;;;;;;;22.61;43.71;94247.78;5070076;28;20563;-75
2023/08/21 01:57:37;;;;;;;6.32;5.72;;;;;;;22.58;43.84;94254.75;5073770;28;20062;-75
2023/08/21 02:00:04;;;;;;;7.43;5.20;;;;;;;22.51;44.03;94238.44;5074349;28;20572;-75
2023/08/21 02:02:30;;;;;;;5.10;4.55;;;;;;;22.54;43.71;94242.31;5074359;28;20154;-75
2023/08/21 02:04:56;;;;;;;6.50;5.72;;;;;;;22.57;43.91;94245.06;5072718;28;20113;-74
2023/08/21 02:07:21;;;;;;;8.27;5.10;;;;;;;22.54;44.49;94245.03;5074987;28;20589;-75
2023/08/21 02:09:47;;;;;;;6.13;5.00;;;;;;;22.51;44.35;94237.66;5062504;28;20060;-75
2023/08/21 02:12:12;;;;;;;9.27;5.43;;;;;;;22.46;44.08;94229.88;5073012;28;20039;-76
2023/08/21 02:14:37;;;;;;;5.93;4.90;;;;;;;22.42;44.40;94245.34;5077340;28;20034;-74
2023/08/21 02:17:03;;;;;;;6.55;5.10;;;;;;;22.39;44.60;94246.88;5074884;28;20127;-74
2023/08/21 02:19:28;;;;;;;8.75;5.43;;;;;;;22.31;44.42;94239.84;5073638;28;20067;-74
2023/08/21 02:21:54;;;;;;;9.35;5.75;;;;;;;22.28;44.48;94222.44;5073018;28;20376;-76
2023/08/21 02:24:19;;;;;;;8.02;5.18;;;;;;;22.31;44.43;94234.44;5070878;28;20027;-76
2023/08/21 02:26:45;;;;;;;8.77;5.30;;;;;;;22.38;44.34;94239.13;5074741;28;20097;-77
2023/08/21 02:29:11;;;;;;;7.13;5.30;;;;;;;22.23;44.55;94211.94;5074529;28;20111;-77
2023/08/21 02:31:36;;;;;;;6.70;5.38;;;;;;;22.26;44.45;94224.72;5066044;28;20024;-76
2023/08/21 02:34:05;;;;;;;7.97;5.20;;;;;;;22.34;44.45;94244.50;5074012;28;20043;-76
2023/08/21 02:36:30;;;;;;;9.63;5.97;;;;;;;22.29;44.83;94232.09;5072506;28;20046;-73
2023/08/21 02:38:56;;;;;;;5.82;5.22;;;;;;;22.24;45.01;94229.00;5077148;28;20028;-76
2023/08/21 02:41:21;;;;;;;7.05;5.57;;;;;;;22.26;44.81;94238.28;5073778;28;20024;-76
2023/08/21 02:43:46;;;;;;;7.50;5.30;;;;;;;22.29;44.40;94236.75;5072682;28;20024;-77
2023/08/21 02:46:12;;;;;;;5.05;4.55;;;;;;;22.36;44.37;94236.00;5072546;28;20090;-77
2023/08/21 02:48:37;;;;;;;9.07;5.35;;;;;;;22.33;44.72;94232.13;5074004;28;20111;-77
2023/08/21 02:51:02;;;;;;;8.68;5.05;;;;;;;22.22;44.48;94226.66;5072011;28;20090;-77
2023/08/21 02:53:28;;;;;;;5.88;5.22;;;;;;;22.28;44.84;94235.97;5075531;28;20772;-76
2023/08/21 02:55:53;;;;;;;7.30;5.60;;;;;;;22.23;44.48;94225.50;5073251;28;20086;-76
2023/08/21 02:58:19;;;;;;;5.63;5.10;;;;;;;22.24;44.72;94246.00;5074510;28;20029;-77
2023/08/21 03:00:44;;;;;;;5.80;5.07;;;;;;;22.19;45.22;94237.44;5071930;28;20491;-77
2023/08/21 03:03:11;;;;;;;7.70;5.90;;;;;;;22.05;45.38;94227.25;5075768;28;20038;-77
2023/08/21 03:05:36;;;;;;;9.65;5.20;;;;;;;22.13;45.71;94241.63;5078620;28;20028;-76
2023/08/21 03:08:02;;;;;;;5.85;4.93;;;;;;;22.09;45.64;94247.03;5077514;28;20400;-76
2023/08/21 03:10:28;;;;;;;7.55;5.18;;;;;;;22.09;45.62;94244.31;5075099;28;20033;-77
2023/08/21 03:12:54;;;;;;;7.32;5.65;;;;;;;21.92;46.17;94239.53;5076224;28;20043;-77
2023/08/21 03:15:20;;;;;;;7.10;5.28;;;;;;;22.03;46.05;94261.28;5075898;28;20520;-76
2023/08/21 03:17:45;;;;;;;8.82;5.55;;;;;;;21.92;46.26;94244.94;5075526;28;20027;-76
2023/08/21 03:20:11;;;;;;;8.15;5.68;;;;;;;21.87;46.68;94253.41;5076126;28;20094;-76
2023/08/21 03:22:36;;;;;;;8.95;5.95;;;;;;;21.79;46.57;94249.09;5077039;28;20130;-75
2023/08/21 03:25:02;;;;;;;7.93;6.07;;;;;;;21.87;46.72;94258.84;5077853;28;20093;-75
2023/08/21 03:27:28;;;;;;;6.05;5.38;;;;;;;21.71;46.86;94255.59;5073581;28;20308;-76
2023/08/21 03:29:53;;;;;;;6.55;5.95;;;;;;;21.57;47.15;94260.88;5076008;28;20032;-75
2023/08/21 03:32:19;;;;;;;7.97;5.47;;;;;;;21.61;47.35;94256.28;5075186;28;20021;-77
2023/08/21 03:34:45;;;;;;;10.52;6.13;;;;;;;21.63;47.05;94264.78;5068682;28;20043;-76
2023/08/21 03:37:11;;;;;;;9.50;5.38;;;;;;;21.58;47.42;94260.50;5072582;28;20841;-76
2023/08/21 03:39:37;;;;;;;7.13;5.57;;;;;;;21.54;47.42;94261.59;5077590;28;20105;-75
2023/08/21 03:42:02;;;;;;;7.65;5.80;;;;;;;21.46;47.63;94256.09;5076950;28;20500;-75
2023/08/21 03:44:28;;;;;;;6.38;5.78;;;;;;;21.45;47.43;94251.06;5074467;28;20130;-76
2023/08/21 03:46:53;;;;;;;8.13;5.95;;;;;;;21.42;47.67;94254.50;5076166;28;20040;-76
2023/08/21 03:49:19;;;;;;;9.50;7.53;;;;;;;21.31;47.84;94249.00;5074894;28;20051;-76
2023/08/21 03:51:44;;;;;;;7.15;6.45;;;;;;;21.41;48.16;94267.25;5076974;28;20723;-75
2023/08/21 03:54:10;;;;;;;9.38;5.80;;;;;;;21.46;47.96;94263.47;5074905;28;20624;-76
2023/08/21 03:56:36;;;;;;;14.32;6.20;;;;;;;21.39;48.00;94245.22;5073631;28;20606;-77
2023/08/21 03:59:01;;;;;;;9.15;6.53;;;;;;;21.39;48.16;94258.75;5071874;28;20040;-75
2023/08/21 04:01:26;;;;;;;7.53;6.20;;;;;;;21.31;48.09;94248.22;5074819;28;20536;-75
2023/08/21 04:03:52;;;;;;;11.40;7.05;;;;;;;21.37;48.16;94262.94;5076153;28;20093;-76
2023/08/21 04:06:17;;;;;;;10.32;6.15;;;;;;;21.31;48.40;94259.03;5088379;27;20627;-75
2023/08/21 04:08:43;;;;;;;11.10;5.95;;;;;;;21.36;48.59;94259.47;5075399;28;20103;-76
2023/08/21 04:11:09;;;;;;;11.73;5.85;;;;;;;21.34;48.72;94259.06;4991927;28;20020;-76
2023/08/21 04:13:34;;;;;;;12.65;6.35;;;;;;;21.32;49.07;94255.94;5053812;28;20432;-75
2023/08/21 04:15:59;;;;;;;8.13;5.32;;;;;;;21.36;48.59;94262.16;5077685;28;20071;-75
2023/08/21 04:18:25;;;;;;;9.77;5.43;;;;;;;21.38;48.76;94267.22;5073627;28;20098;-76
2023/08/21 04:20:51;;;;;;;9.45;6.47;;;;;;;21.43;48.97;94278.50;5075507;28;20409;-76
2023/08/21 04:23:16;;;;;;;8.30;6.18;;;;;;;21.42;49.24;94263.41;5074599;28;20055;-75
2023/08/21 04:25:42;;;;;;;8.02;5.60;;;;;;;21.31;49.17;94238.19;5068223;28;20404;-75
2023/08/21 04:28:08;;;;;;;10.07;5.60;;;;;;;21.56;49.40;94275.56;5072639;28;20516;-75
2023/08/21 04:30:33;;;;;;;7.32;5.88;;;;;;;21.53;49.23;94260.03;5077735;28;20119;-76
2023/08/21 04:33:00;;;;;;;11.85;5.80;;;;;;;21.66;49.95;94283.78;5072966;28;20036;-74
2023/08/21 04:35:25;;;;;;;7.15;5.95;;;;;;;21.62;49.96;94280.25;5074949;28;20789;-76
2023/08/21 04:37:51;;;;;;;8.15;5.93;;;;;;;21.78;49.31;94283.53;5075677;28;20331;-77
2023/08/21 04:40:17;;;;;;;8.82;6.30;;;;;;;21.84;48.92;94284.75;5072977;28;20032;-75
2023/08/21 04:42:43;;;;;;;9.90;6.32;;;;;;;21.88;49.46;94271.22;5075902;28;20463;-76
2023/08/21 04:45:09;;;;;;;8.48;6.28;;;;;;;21.96;49.35;94278.25;5074353;28;20042;-75
2023/08/21 04:47:35;;;;;;;10.50;6.13;;;;;;;21.98;49.54;94273.25;5075904;28;20044;-75
2023/08/21 04:50:00;;;;;;;6.72;6.13;;;;;;;21.87;49.95;94256.91;5077037;28;20066;-75
2023/08/21 04:52:26;;;;;;;11.18;5.90;;;;;;;22.09;49.01;94276.06;5074383;28;20511;-75
2023/08/21 04:54:52;;;;;;;8.05;6.60;;;;;;;22.20;49.08;94280.38;5074826;28;20027;-76
2023/08/21 04:57:17;;;;;;;7.28;6.13;;;;;;;22.18;49.00;94263.75;5071599;28;20336;-77
2023/08/21 04:59:46;;;;;;;8.77;5.88;;;;;;;22.32;49.17;94284.00;5066835;28;20107;-75
2023/08/21 05:02:12;;;;;;;12.98;7.57;;;;;;;22.46;48.55;94289.50;5071690;28;20040;-74
2023/08/21 05:04:37;;;;;;;14.40;7.43;;;;;;;22.52;47.44;94283.38;5006149;28;20849;-76
2023/08/21 05:07:04;;;;;;;15.20;8.55;;;;;;;22.42;47.22;94267.81;5035771;28;20054;-76
2023/08/21 05:09:30;;;;;;;16.00;8.02;;;;;;;22.57;47.40;94285.72;5073841;28;20051;-75
2023/08/21 05:11:55;;;;;;;21.98;9.15;;;;;;;22.64;47.95;94293.09;5075274;28;20031;-76
2023/08/21 05:14:21;;;;;;;26.85;8.77;;;;;;;22.80;48.09;94299.03;5073019;28;20042;-76
2023/08/21 05:16:49;;;;;;;15.77;8.70;;;;;;;22.86;47.36;94308.41;5070671;28;20032;-75
2023/08/21 05:19:14;;;;;;;22.15;8.68;;;;;;;22.91;46.52;94308.03;5071142;28;20033;-75
2023/08/21 05:21:40;;;;;;;18.40;8.32;;;;;;;22.91;46.84;94316.16;5071050;28;20392;-76
2023/08/21 05:24:05;;;;;;;23.00;9.73;;;;;;;22.92;47.40;94301.47;5069825;28;20123;-77
2023/08/21 05:26:31;;;;;;;18.27;9.75;;;;;;;22.98;47.73;94315.41;5073194;28;20081;-77
2023/08/21 05:28:57;;;;;;;15.93;9.00;;;;;;;23.04;47.73;94314.69;5071125;28;20028;-74
2023/08/21 05:31:22;;;;;;;15.93;10.23;;;;;;;23.15;47.32;94312.81;5059981;28;20547;-75
2023/08/21 05:33:48;;;;;;;14.02;9.32;;;;;;;23.19;47.31;94304.69;5074174;28;20135;-76
2023/08/21 05:36:14;;;;;;;24.63;10.50;;;;;;;23.10;47.30;94302.31;5086754;27;20127;-75
2023/08/21 05:38:39;;;;;;;15.05;10.55;;;;;;;23.20;47.27;94306.22;5073398;28;20023;-74
2023/08/21 05:41:05;;;;;;;18.90;11.07;;;;;;;23.23;46.64;94305.47;5072518;28;20259;-75
2023/08/21 05:43:30;;;;;;;17.98;9.98;;;;;;;23.24;45.74;94289.97;5073427;28;20119;-75
2023/08/21 05:45:56;;;;;;;14.13;10.10;;;;;;;23.42;45.89;94301.66;5074622;28;20062;-76
2023/08/21 05:48:21;;;;;;;15.75;9.35;;;;;;;23.45;45.87;94298.97;5072868;28;20036;-78
2023/08/21 05:50:51;;;;;;;12.45;9.27;;;;;;;23.58;45.39;94300.19;5073556;28;20110;-77
2023/08/21 05:53:16;;;;;;;15.15;8.88;;;;;;;23.60;45.44;94291.66;5072218;28;20028;-73
2023/08/21 05:55:42;;;;;;;17.88;8.43;;;;;;;23.59;45.22;94279.25;5074848;28;20815;-77
2023/08/21 05:58:07;;;;;;;13.00;8.70;;;;;;;23.79;45.55;94296.75;5074822;28;20052;-76
2023/08/21 06:00:34;;;;;;;12.70;8.35;;;;;;;23.91;45.35;94298.31;5072924;28;20131;-75
2023/08/21 06:03:00;;;;;;;15.57;9.20;;;;;;;24.04;43.41;94287.88;5071065;28;20400;-77
2023/08/21 06:05:26;;;;;;;15.52;8.45;;;;;;;24.09;43.59;94296.41;5074035;28;20032;-76
2023/08/21 06:07:51;;;;;;;18.20;8.55;;;;;;;24.10;44.21;94302.63;5072201;28;20075;-76
2023/08/21 06:10:17;;;;;;;16.95;9.63;;;;;;;24.07;43.51;94297.94;5073191;28;20028;-76
2023/08/21 06:12:42;;;;;;;19.88;9.45;;;;;;;24.19;44.13;94308.47;5087956;28;20072;-76
2023/08/21 06:15:09;;;;;;;27.20;10.70;;;;;;;24.22;44.03;94304.97;5073782;28;20055;-77
2023/08/21 06:17:34;;;;;;;21.98;9.27;;;;;;;24.29;44.80;94302.28;5072878;28;20486;-78
2023/08/21 06:20:00;;;;;;;20.27;10.52;;;;;;;24.33;45.02;94303.81;5075188;28;20047;-76
2023/08/21 06:22:25;;;;;;;16.42;8.10;;;;;;;24.39;43.33;94302.25;5074614;28;20047;-78
2023/08/21 06:24:51;;;;;;;16.80;7.78;;;;;;;24.49;42.47;94306.16;5071698;28;20040;-76
2023/08/21 06:27:17;;;;;;;17.40;8.30;;;;;;;24.57;42.37;94307.69;5073566;28;20032;-75
2023/08/21 06:29:42;;;;;;;17.80;8.18;;;;;;;24.45;43.66;94302.63;5072072;28;20028;-76
2023/08/21 06:32:08;;;;;;;18.23;8.07;;;;;;;24.35;41.37;94287.09;5074853;28;20032;-75
2023/08/21 06:34:33;;;;;;;13.48;7.72;;;;;;;24.53;42.22;94295.25;5071943;28;20347;-77
2023/08/21 06:36:59;;;;;;;11.40;8.05;;;;;;;24.68;42.55;94311.19;5074442;28;20047;-76
2023/08/21 06:39:25;;;;;;;16.65;8.05;;;;;;;24.79;41.74;94306.50;5078518;28;20047;-76
2023/08/21 06:41:50;;;;;;;10.25;7.32;;;;;;;24.80;42.06;94302.63;5075296;28;20467;-75
2023/08/21 06:44:16;;;;;;;16.05;8.73;;;;;;;24.91;42.75;94299.09;5077413;28;20483;-76
2023/08/21 06:46:41;;;;;;;22.70;8.73;;;;;;;25.02;42.76;94314.25;5077939;28;20043;-75
2023/08/21 06:49:07;;;;;;;12.45;8.00;;;;;;;25.11;42.58;94324.72;5075289;28;20035;-76
2023/08/21 06:51:32;;;;;;;16.90;7.15;;;;;;;25.12;40.92;94320.84;5075728;28;20739;-75
2023/08/21 06:53:58;;;;;;;13.43;6.68;;;;;;;25.20;39.73;94306.03;5076406;28;20712;-75
2023/08/21 06:56:23;;;;;;;8.65;7.43;;;;;;;25.22;38.85;94320.03;5078387;28;20028;-77
2023/08/21 06:58:49;;;;;;;7.90;6.10;;;;;;;25.34;39.94;94303.28;5077465;28;20040;-77
2023/08/21 07:01:14;;;;;;;9.13;6.07;;;;;;;25.51;39.80;94313.31;5076271;28;20037;-76
2023/08/21 07:03:39;;;;;;;11.00;5.90;;;;;;;25.59;39.22;94308.59;5076111;28;20620;-75
2023/08/21 07:06:05;;;;;;;10.10;6.13;;;;;;;25.62;38.94;94305.84;5074474;28;20032;-77
2023/08/21 07:08:30;;;;;;;12.10;6.85;;;;;;;25.50;39.37;94278.31;5077715;28;20027;-77
2023/08/21 07:10:56;;;;;;;10.85;6.28;;;;;;;25.67;38.87;94302.72;5076421;28;20035;-77
2023/08/21 07:13:22;;;;;;;10.52;5.80;;;;;;;25.78;37.70;94307.34;5074640;28;20051;-76
2023/08/21 07:15:47;;;;;;;11.68;6.05;;;;;;;25.77;38.51;94297.59;5072534;28;20559;-76
2023/08/21 07:18:13;;;;;;;11.07;6.90;;;;;;;25.91;38.65;94313.91;5079036;28;20222;-76
2023/08/21 07:20:39;;;;;;;9.48;7.10;;;;;;;25.96;37.97;94306.06;5075303;28;20036;-76
2023/08/21 07:23:04;;;;;;;8.45;5.90;;;;;;;25.90;37.11;94304.97;5075071;28;20731;-76
2023/08/21 07:25:30;;;;;;;7.88;5.53;;;;;;;25.98;38.35;94313.84;5075688;28;20040;-76
2023/08/21 07:27:56;;;;;;;10.88;5.90;;;;;;;26.01;38.66;94310.31;5067352;28;20416;-75
2023/08/21 07:30:22;;;;;;;13.75;7.10;;;;;;;26.08;38.31;94305.63;5076402;28;20065;-77
2023/08/21 07:32:47;;;;;;;11.15;6.10;;;;;;;26.07;38.34;94308.72;5074659;28;20472;-76
2023/08/21 07:35:13;;;;;;;8.05;6.13;;;;;;;26.19;38.09;94302.81;5077147;28;20104;-76
2023/08/21 07:37:40;;;;;;;12.75;5.82;;;;;;;26.30;38.88;94302.75;5077510;28;20342;-76
2023/08/21 07:40:07;;;;;;;9.45;6.10;;;;;;;26.31;38.54;94315.19;5074596;28;20050;-77
2023/08/21 07:42:32;;;;;;;10.82;6.55;;;;;;;26.28;38.21;94300.41;5076815;28;20032;-76
2023/08/21 07:44:58;;;;;;;12.23;6.20;;;;;;;26.28;37.35;94294.97;5076243;28;20101;-76
2023/08/21 07:47:23;;;;;;;7.50;5.68;;;;;;;26.31;37.24;94296.88;5073753;28;20789;-76
2023/08/21 07:49:48;;;;;;;14.98;5.63;;;;;;;26.48;37.92;94309.63;5074337;28;20032;-76
2023/08/21 07:52:15;;;;;;;9.65;6.15;;;;;;;26.53;36.42;94303.75;5074483;28;20059;-76
2023/08/21 07:54:41;;;;;;;10.20;6.05;;;;;;;26.64;36.34;94311.06;5067979;28;20047;-76
2023/08/21 07:57:06;;;;;;;10.13;6.40;;;;;;;26.64;37.75;94300.94;5076025;28;20040;-76
2023/08/21 07:59:32;;;;;;;6.35;5.25;;;;;;;26.68;37.68;94303.63;5073967;28;20150;-76
2023/08/21 08:01:57;;;;;;;10.90;5.85;;;;;;;26.66;37.37;94275.94;5076254;28;20036;-77
2023/08/21 08:04:23;;;;;;;9.68;6.05;;;;;;;26.87;37.29;94305.75;5071526;28;20028;-76
2023/08/21 08:06:48;;;;;;;10.98;5.85;;;;;;;26.85;36.75;94289.00;5074783;28;20071;-77
2023/08/21 08:09:13;;;;;;;7.05;5.60;;;;;;;26.93;35.19;94301.41;5074310;28;20035;-77
2023/08/21 08:11:39;;;;;;;7.93;5.70;;;;;;;26.85;36.38;94294.47;5075324;28;20027;-76
2023/08/21 08:14:05;;;;;;;15.07;6.35;;;;;;;26.72;36.51;94296.16;5077115;28;20298;-76
2023/08/21 08:16:30;;;;;;;9.25;6.10;;;;;;;26.60;36.98;94291.97;5076383;28;20163;-76
2023/08/21 08:18:56;;;;;;;9.23;5.85;;;;;;;26.74;37.91;94299.28;5073411;28;20525;-76
2023/08/21 08:21:21;;;;;;;8.70;6.05;;;;;;;26.82;36.84;94290.59;5077452;28;20044;-76
2023/08/21 08:23:46;;;;;;;9.32;6.18;;;;;;;26.78;36.57;94297.28;5075040;28;20377;-76
2023/08/21 08:26:12;;;;;;;6.85;5.25;;;;;;;26.90;36.48;94302.22;5075088;28;20055;-76
2023/08/21 08:28:37;;;;;;;9.23;5.68;;;;;;;26.86;35.42;94290.56;5074708;28;20047;-75
2023/08/21 08:31:03;;;;;;;6.00;5.43;;;;;;;26.79;36.17;94285.19;5074393;28;20032;-76
2023/08/21 08:33:28;;;;;;;6.32;5.72;;;;;;;26.89;36.14;94281.56;5072521;28;20840;-76
2023/08/21 08:35:53;;;;;;;12.15;6.78;;;;;;;26.93;34.92;94283.09;5074463;28;20055;-78
2023/08/21 08:38:19;;;;;;;9.65;5.97;;;;;;;26.95;35.85;94285.41;5072752;28;20032;-77
2023/08/21 08:40:46;;;;;;;8.57;5.80;;;;;;;27.05;36.42;94287.25;5071870;28;20032;-76
2023/08/21 08:43:13;;;;;;;5.95;5.10;;;;;;;27.16;36.53;94281.69;5073049;28;20876;-76
2023/08/21 08:45:41;;;;;;;7.25;5.45;;;;;;;27.13;35.33;94277.06;5077022;28;20369;-78
2023/08/21 08:48:07;;;;;;;8.60;5.53;;;;;;;27.24;37.04;94275.72;5082206;28;20040;-77
2023/08/21 08:50:33;;;;;;;6.80;5.15;;;;;;;27.24;37.07;94262.09;5077259;28;20020;-76
2023/08/21 08:53:00;;;;;;;8.10;5.75;;;;;;;27.21;36.37;94262.91;5072458;28;20032;-76
2023/08/21 08:55:26;;;;;;;7.60;5.57;;;;;;;27.19;35.37;94267.22;5073816;28;20066;-77
2023/08/21 08:57:52;;;;;;;5.65;5.07;;;;;;;27.09;35.02;94265.38;5073074;28;20032;-76
2023/08/21 09:00:17;;;;;;;11.38;5.32;;;;;;;27.08;34.75;94275.56;5074789;28;20505;-77
2023/08/21 09:02:43;;;;;;;9.57;5.85;;;;;;;27.08;35.25;94270.09;5074626;28;20102;-75
2023/08/21 09:05:10;;;;;;;7.55;5.30;;;;;;;26.90;35.04;94264.78;5067102;28;20023;-75
2023/08/21 09:07:36;;;;;;;9.30;5.30;;;;;;;26.90;34.92;94274.91;5072829;28;20048;-78
2023/08/21 09:10:02;;;;;;;6.05;5.13;;;;;;;27.10;36.17;94267.72;5073862;28;20039;-77
2023/08/21 09:12:31;;;;;;;6.88;4.80;;;;;;;27.17;34.95;94269.59;5073936;28;20114;-77
2023/08/21 09:14:59;;;;;;;7.60;5.03;;;;;;;27.13;34.75;94255.22;5073364;28;20020;-78
2023/08/21 09:17:26;;;;;;;6.03;5.18;;;;;;;27.29;35.10;94258.91;5074531;28;20466;-76
2023/08/21 09:19:51;;;;;;;9.90;6.20;;;;;;;27.07;34.82;94257.63;5092899;27;20032;-77
2023/08/21 09:22:18;;;;;;;9.25;5.68;;;;;;;27.33;35.03;94259.63;5073478;28;20035;-78
2023/08/21 09:25:19;;;;;;;7.15;5.57;;;;;;;27.24;34.13;94266.75;5075297;28;20036;-76
2023/08/21 09:27:44;;;;;;;6.70;5.47;;;;;;;27.18;33.89;94250.06;4994966;28;20048;-76
2023/08/21 09:30:15;;;;;;;8.10;5.40;;;;;;;27.40;34.03;94256.81;5052852;28;20036;-77
2023/08/21 09:33:09;;;;;;;7.88;5.28;;;;;;;27.26;33.96;94254.28;5073908;28;20031;-75
2023/08/21 09:35:35;;;;;;;7.88;5.13;;;;;;;27.28;34.06;94257.34;5058164;28;20079;-77
2023/08/21 09:38:00;;;;;;;8.07;5.03;;;;;;;27.30;33.95;94248.75;5072092;28;20653;-76
2023/08/21 09:40:26;;;;;;;8.52;5.05;;;;;;;27.37;34.62;94235.75;5071775;28;20071;-76
2023/08/21 09:43:03;;;;;;;10.07;6.20;;;;;;;27.52;33.86;94250.00;5073921;28;20036;-77
2023/08/21 09:45:29;;;;;;;7.40;6.07;;;;;;;27.65;32.95;94253.00;5071475;28;20037;-76
2023/08/21 09:47:55;;;;;;;9.90;6.00;;;;;;;27.75;32.71;94247.41;5075044;28;20030;-77
2023/08/21 09:50:22;;;;;;;9.48;5.63;;;;;;;27.79;33.81;94241.88;5066108;28;20032;-77
2023/08/21 09:52:47;;;;;;;6.32;4.75;;;;;;;27.73;33.43;94236.09;5067691;28;20035;-76
2023/08/21 09:55:17;;;;;;;9.63;5.28;;;;;;;27.67;32.72;94239.69;5064101;28;20055;-76
2023/08/21 09:57:43;;;;;;;9.73;5.18;;;;;;;27.70;34.10;94233.41;5066309;28;21005;-76
2023/08/21 10:00:15;;;;;;;9.68;5.55;;;;;;;27.85;33.46;94236.72;5062994;28;20646;-76
2023/08/21 10:02:45;;;;;;;7.93;5.50;;;;;;;27.92;35.13;94228.41;5064728;28;20024;-77
2023/08/21 10:05:12;;;;;;;5.40;4.90;;;;;;;28.07;33.31;94230.50;4982203;28;20077;-76
2023/08/21 10:07:38;;;;;;;10.57;5.18;;;;;;;27.98;32.49;94222.06;4982748;28;20498;-78
2023/08/21 10:10:05;;;;;;;11.65;5.03;;;;;;;28.13;32.33;94223.41;4979518;28;20041;-76
2023/08/21 10:12:30;;;;;;;6.70;4.43;;;;;;;28.23;32.27;94210.75;4989391;28;20357;-77
2023/08/21 10:14:56;;;;;;;9.48;5.35;;;;;;;27.96;33.23;94213.47;4983583;28;20029;-76
2023/08/21 10:17:22;;;;;;;7.47;5.53;;;;;;;28.09;34.62;94217.19;4981469;28;20022;-76
2023/08/21 10:19:52;;;;;;;9.23;5.35;;;;;;;28.17;32.03;94210.44;4992559;28;20137;-76
2023/08/21 10:22:37;;;;;;;6.35;4.78;;;;;;;28.11;32.48;94219.53;4982189;28;20497;-77
2023/08/21 10:25:02;;;;;;;8.73;4.70;;;;;;;28.10;32.12;94196.91;4986830;28;20030;-77
2023/08/21 10:27:30;;;;;;;7.57;4.40;;;;;;;27.85;31.51;94190.25;4993231;28;20636;-77
2023/08/21 10:29:57;;;;;;;6.80;4.97;;;;;;;27.56;32.22;94173.50;4983451;28;20030;-76
2023/08/21 10:32:23;;;;;;;10.93;5.03;;;;;;;27.83;31.83;94204.31;4978128;28;20244;-77
2023/08/21 10:34:53;;;;;;;6.60;4.45;;;;;;;27.95;31.92;94200.25;4988750;28;20046;-76
2023/08/21 10:37:19;;;;;;;9.88;4.32;;;;;;;28.16;31.92;94197.19;4993068;28;20066;-77
2023/08/21 10:39:57;;;;;;;7.75;4.22;;;;;;;28.08;31.84;94210.19;4967994;28;20080;-77
2023/08/21 10:42:42;;;;;;;8.27;5.22;;;;;;;28.02;31.45;94200.13;4980354;28;20195;-78
2023/08/21 10:45:11;;;;;;;8.20;4.60;;;;;;;27.98;31.83;94185.75;4976516;28;20297;-76
2023/08/21 10:47:37;;;;;;;7.03;4.68;;;;;;;28.12;30.96;94186.31;4979606;28;20412;-76
2023/08/21 10:50:05;;;;;;;6.97;4.28;;;;;;;28.06;30.93;94174.25;4979516;28;20308;-77
2023/08/21 10:52:43;;;;;;;15.25;4.88;;;;;;;28.23;30.76;94199.81;4985827;28;20042;-77
2023/08/21 10:55:09;;;;;;;12.45;4.93;;;;;;;28.43;30.25;94186.19;4982427;28;20110;-76
2023/08/21 10:57:35;;;;;;;6.32;4.50;;;;;;;28.61;30.40;94175.66;5000908;28;20126;-77
2023/08/21 11:00:04;;;;;;;6.97;4.40;;;;;;;28.72;29.88;94180.97;4987062;28;20046;-76
2023/08/21 11:02:31;;;;;;;9.23;4.53;;;;;;;28.74;30.92;94184.06;4989105;28;20030;-75
2023/08/21 11:04:58;;;;;;;6.50;4.55;;;;;;;28.81;31.00;94173.75;4989411;28;20044;-75
2023/08/21 11:07:25;;;;;;;8.60;4.93;;;;;;;28.74;30.38;94173.91;4997812;28;20043;-77
2023/08/21 11:09:51;;;;;;;8.32;4.85;;;;;;;28.79;30.12;94170.69;4994964;28;20159;-76
2023/08/21 11:12:22;;;;;;;8.10;4.53;;;;;;;28.88;29.98;94168.16;4996680;28;20038;-76
2023/08/21 11:14:47;;;;;;;10.40;4.40;;;;;;;28.99;32.04;94171.41;4995866;28;20144;-76
2023/08/21 11:17:13;;;;;;;8.43;4.82;;;;;;;28.92;30.16;94151.63;4992215;28;20546;-76
2023/08/21 11:19:42;;;;;;;5.10;4.47;;;;;;;28.92;28.80;94157.88;4995591;28;20100;-77
2023/08/21 11:22:07;;;;;;;8.93;4.05;;;;;;;28.87;29.41;94155.66;4992535;28;20125;-76
2023/08/21 11:24:46;;;;;;;4.82;4.32;;;;;;;28.72;29.51;94176.28;4992241;28;20034;-76
2023/08/21 11:27:14;;;;;;;8.98;4.70;;;;;;;28.89;29.79;94158.72;4996131;28;20038;-75
2023/08/21 11:29:47;;;;;;;6.43;4.38;;;;;;;28.90;29.57;94152.06;4990589;28;20113;-76